createdAt,value
2023-02-10T00:01:53.562Z,53.20
2023-02-10T00:04:20.690Z,53.20
2023-02-10T00:06:47.588Z,53.10
2023-02-10T00:09:16.160Z,53.20
2023-02-10T00:12:00.904Z,53.20
2023-02-10T00:14:29.816Z,53.10
2023-02-10T00:16:58.262Z,53.10
2023-02-10T00:19:27.160Z,53.10
2023-02-10T00:21:54.504Z,53.00
2023-02-10T00:24:22.373Z,53.10
2023-02-10T00:26:50.040Z,53.10
2023-02-10T00:29:17.078Z,53.00
2023-02-10T00:31:44.786Z,53.00
2023-02-10T00:34:18.403Z,53.10
2023-02-10T00:36:46.453Z,53.00
2023-02-10T00:39:15.137Z,53.10
2023-02-10T00:41:42.331Z,53.00
2023-02-10T00:44:10.060Z,53.10
2023-02-10T00:46:37.419Z,53.00
2023-02-10T00:49:06.097Z,53.00
2023-02-10T00:51:35.645Z,53.40
2023-02-10T00:54:02.640Z,53.30
2023-02-10T00:56:29.747Z,53.30
2023-02-10T00:58:57.893Z,53.40
2023-02-10T01:01:25.016Z,54.10
2023-02-10T01:03:51.984Z,53.20
2023-02-10T01:06:18.963Z,53.50
2023-02-10T01:08:46.098Z,53.50
2023-02-10T01:11:14.274Z,53.60
2023-02-10T01:13:42.949Z,53.40
2023-02-10T01:16:14.708Z,53.50
2023-02-10T01:18:42.517Z,53.40
2023-02-10T01:21:11.347Z,53.60
2023-02-10T01:23:38.411Z,53.50
2023-02-10T01:26:05.667Z,53.60
2023-02-10T01:28:33.100Z,53.50
2023-02-10T01:31:04.890Z,53.50
2023-02-10T01:33:31.874Z,53.60
2023-02-10T01:35:58.804Z,53.70
2023-02-10T01:38:25.840Z,53.80
2023-02-10T01:40:52.769Z,53.70
2023-02-10T01:43:20.572Z,53.70
2023-02-10T01:45:47.961Z,53.70
2023-02-10T01:48:15.803Z,54.50
2023-02-10T01:50:51.823Z,54.20
2023-02-10T01:53:18.905Z,54.40
2023-02-10T01:55:49.962Z,54.90
2023-02-10T01:58:21.543Z,54.70
2023-02-10T02:00:48.881Z,54.90
2023-02-10T02:03:16.319Z,54.90
2023-02-10T02:05:44.911Z,55.00
2023-02-10T02:08:15.008Z,55.00
2023-02-10T02:10:47.762Z,55.10
2023-02-10T02:13:43.754Z,55.10
2023-02-10T02:16:50.441Z,54.90
2023-02-10T02:20:15.313Z,55.00
2023-02-10T02:23:17.583Z,55.00
2023-02-10T02:25:57.428Z,54.90
2023-02-10T02:28:24.711Z,54.90
2023-02-10T02:31:17.692Z,54.90
2023-02-10T02:34:19.582Z,54.60
2023-02-10T02:36:58.360Z,54.60
2023-02-10T02:39:25.342Z,54.70
2023-02-10T02:42:16.260Z,54.60
2023-02-10T02:44:46.538Z,54.50
2023-02-10T02:47:30.713Z,54.40
2023-02-10T02:50:17.651Z,54.30
2023-02-10T02:52:57.688Z,54.40
2023-02-10T02:55:33.597Z,54.20
2023-02-10T02:58:41.693Z,54.20
2023-02-10T03:01:30.000Z,54.10
2023-02-10T03:03:59.167Z,54.00
2023-02-10T03:06:26.427Z,53.90
2023-02-10T03:08:54.214Z,53.90
2023-02-10T03:11:21.352Z,53.80
2023-02-10T03:13:49.020Z,53.80
2023-02-10T03:16:18.448Z,53.90
2023-02-10T03:18:45.536Z,53.80
2023-02-10T03:21:12.655Z,53.80
2023-02-10T03:23:39.610Z,54.00
2023-02-10T03:26:06.739Z,53.90
2023-02-10T03:28:33.807Z,54.10
2023-02-10T03:31:06.295Z,54.40
2023-02-10T03:33:38.249Z,54.30
2023-02-10T03:36:06.591Z,54.50
2023-02-10T03:38:34.949Z,55.00
2023-02-10T03:41:02.083Z,55.70
2023-02-10T03:43:29.188Z,55.80
2023-02-10T03:45:56.662Z,56.40
2023-02-10T03:48:28.016Z,56.20
2023-02-10T03:50:54.992Z,56.40
2023-02-10T03:53:22.212Z,56.70
2023-02-10T03:55:54.306Z,57.40
2023-02-10T03:58:37.012Z,57.40
2023-02-10T04:01:13.139Z,58.00
2023-02-10T04:03:41.898Z,58.50
2023-02-10T04:06:12.058Z,58.30
2023-02-10T04:08:40.074Z,58.80
2023-02-10T04:11:09.065Z,59.00
2023-02-10T04:13:37.045Z,59.80
2023-02-10T04:16:06.447Z,59.60
2023-02-10T04:18:37.108Z,59.40
2023-02-10T04:21:05.440Z,59.20
2023-02-10T04:23:32.916Z,59.60
2023-02-10T04:26:00.517Z,60.40
2023-02-10T04:28:28.134Z,60.50
2023-02-10T04:30:56.807Z,60.30
2023-02-10T04:33:25.994Z,60.00
2023-02-10T04:35:54.635Z,60.20
2023-02-10T04:38:22.336Z,59.80
2023-02-10T04:40:49.276Z,60.00
2023-02-10T04:43:16.813Z,60.20
2023-02-10T04:45:43.858Z,60.40
2023-02-10T04:48:11.060Z,60.60
2023-02-10T04:50:38.602Z,61.00
2023-02-10T04:53:07.101Z,60.90
2023-02-10T04:55:35.078Z,61.00
2023-02-10T04:58:02.333Z,60.50
2023-02-10T05:00:29.506Z,61.20
2023-02-10T05:02:56.860Z,61.20
2023-02-10T05:05:25.895Z,60.90
2023-02-10T05:07:53.764Z,61.10
2023-02-10T05:10:21.219Z,60.70
2023-02-10T05:12:48.774Z,61.10
2023-02-10T05:15:17.244Z,61.00
2023-02-10T05:17:44.362Z,61.00
2023-02-10T05:20:11.757Z,60.90
2023-02-10T05:22:40.249Z,60.60
2023-02-10T05:25:08.197Z,60.40
2023-02-10T05:27:36.308Z,60.40
2023-02-10T05:30:07.213Z,60.40
2023-02-10T05:32:34.636Z,60.00
2023-02-10T05:35:01.661Z,60.30
2023-02-10T05:37:28.660Z,60.00
2023-02-10T05:39:55.787Z,60.60
2023-02-10T05:42:22.828Z,60.40
2023-02-10T05:44:49.984Z,60.00
2023-02-10T05:47:16.919Z,59.90
2023-02-10T05:49:43.889Z,60.10
2023-02-10T05:52:10.885Z,60.00
2023-02-10T05:54:37.949Z,59.90
2023-02-10T05:57:05.088Z,59.80
2023-02-10T05:59:32.039Z,59.80
2023-02-10T06:01:59.350Z,59.70
2023-02-10T06:04:26.526Z,59.70
2023-02-10T06:06:53.549Z,59.90
2023-02-10T06:09:23.728Z,60.30
2023-02-10T06:11:54.122Z,61.00
2023-02-10T06:14:21.347Z,61.50
2023-02-10T06:16:48.427Z,62.10
2023-02-10T06:19:15.409Z,62.10
2023-02-10T06:21:42.319Z,62.50
2023-02-10T06:24:10.788Z,62.60
2023-02-10T06:26:37.832Z,62.80
2023-02-10T06:29:04.791Z,62.50
2023-02-10T06:31:31.947Z,62.60
2023-02-10T06:33:59.052Z,62.80
2023-02-10T06:36:26.174Z,63.30
2023-02-10T06:38:53.132Z,63.80
2023-02-10T06:41:20.130Z,63.70
2023-02-10T06:43:47.186Z,63.90
2023-02-10T06:46:16.679Z,64.00
2023-02-10T06:48:43.726Z,64.20
2023-02-10T06:51:10.710Z,64.50
2023-02-10T06:53:39.396Z,64.30
2023-02-10T06:56:06.971Z,64.50
2023-02-10T06:58:33.861Z,64.50
2023-02-10T07:01:01.982Z,64.70
2023-02-10T07:03:29.986Z,64.70
2023-02-10T07:05:56.981Z,65.00
2023-02-10T07:08:24.009Z,65.10
2023-02-10T07:10:51.215Z,65.30
2023-02-10T07:13:18.374Z,65.70
2023-02-10T07:15:45.304Z,65.90
2023-02-10T07:18:12.239Z,65.90
2023-02-10T07:20:39.472Z,65.80
2023-02-10T07:23:06.866Z,65.90
2023-02-10T07:25:33.991Z,65.30
2023-02-10T07:28:00.980Z,65.60
2023-02-10T07:30:28.017Z,65.30
2023-02-10T07:32:55.831Z,65.60
2023-02-10T07:35:23.586Z,65.80
2023-02-10T07:37:50.737Z,65.70
2023-02-10T07:40:17.712Z,65.50
2023-02-10T07:42:44.697Z,65.40
2023-02-10T07:45:38.450Z,65.20
2023-02-10T07:48:05.437Z,64.80
2023-02-10T07:50:34.552Z,64.50
2023-02-10T07:53:01.837Z,64.10
2023-02-10T07:55:28.788Z,63.00
2023-02-10T07:57:55.791Z,62.70
2023-02-10T08:00:22.876Z,62.10
2023-02-10T08:02:49.836Z,60.40
2023-02-10T08:05:17.182Z,59.40
2023-02-10T08:07:44.238Z,58.50
2023-02-10T08:10:11.173Z,58.20
2023-02-10T08:12:38.332Z,58.00
2023-02-10T08:15:06.879Z,58.00
2023-02-10T08:17:34.068Z,57.50
2023-02-10T08:20:01.085Z,57.50
2023-02-10T08:22:28.210Z,57.70
2023-02-10T08:24:55.171Z,58.20
2023-02-10T08:27:22.170Z,58.60
2023-02-10T08:29:49.119Z,58.50
2023-02-10T08:32:19.954Z,58.50
2023-02-10T08:34:48.113Z,58.80
2023-02-10T08:37:16.026Z,59.00
2023-02-10T08:39:43.471Z,59.40
2023-02-10T08:42:10.720Z,59.40
2023-02-10T08:44:37.850Z,59.40
2023-02-10T08:47:05.145Z,59.50
2023-02-10T08:49:32.083Z,59.30
2023-02-10T08:51:59.039Z,58.90
2023-02-10T08:54:26.324Z,58.40
2023-02-10T08:56:56.356Z,58.10
2023-02-10T08:59:24.020Z,57.60
2023-02-10T09:01:51.448Z,56.80
2023-02-10T09:04:19.454Z,56.30
2023-02-10T09:06:46.831Z,55.40
2023-02-10T09:09:20.623Z,55.10
2023-02-10T09:11:48.255Z,55.00
2023-02-10T09:14:15.501Z,55.40
2023-02-10T09:16:42.539Z,55.70
2023-02-10T09:19:10.118Z,56.20
2023-02-10T09:21:47.073Z,56.80
2023-02-10T09:24:15.252Z,57.40
2023-02-10T09:26:42.280Z,58.00
2023-02-10T09:29:09.331Z,58.40
2023-02-10T09:31:36.944Z,59.10
2023-02-10T09:34:04.951Z,59.50
2023-02-10T09:36:32.575Z,60.10
2023-02-10T09:38:59.596Z,60.60
2023-02-10T09:41:45.862Z,61.10
2023-02-10T09:44:23.311Z,61.50
2023-02-10T09:46:56.721Z,61.90
2023-02-10T09:49:48.596Z,62.10
2023-02-10T09:52:21.310Z,62.70
2023-02-10T09:54:48.535Z,63.20
2023-02-10T09:57:33.841Z,63.50
2023-02-10T10:00:02.632Z,63.40
2023-02-10T10:02:51.349Z,64.00
2023-02-10T10:05:43.344Z,64.20
2023-02-10T10:08:23.315Z,64.20
2023-02-10T10:10:51.579Z,64.60
2023-02-10T10:13:25.830Z,64.80
2023-02-10T10:16:31.808Z,65.00
2023-02-10T10:19:24.162Z,65.20
2023-02-10T10:22:20.191Z,65.50
2023-02-10T10:25:21.447Z,65.20
2023-02-10T10:28:25.897Z,65.50
2023-02-10T10:31:00.627Z,65.10
2023-02-10T10:33:48.934Z,65.10
2023-02-10T10:36:19.053Z,65.10
2023-02-10T10:39:18.109Z,65.20
2023-02-10T10:41:46.318Z,65.10
2023-02-10T10:44:18.377Z,65.80
2023-02-10T10:46:53.508Z,66.20
2023-02-10T10:49:20.644Z,66.00
2023-02-10T10:51:49.220Z,65.60
2023-02-10T10:54:20.834Z,64.30
2023-02-10T10:56:57.789Z,63.50
2023-02-10T10:59:42.216Z,62.60
2023-02-10T11:02:20.794Z,61.70
2023-02-10T11:05:00.468Z,60.80
2023-02-10T11:07:29.426Z,60.30
2023-02-10T11:09:56.833Z,60.10
2023-02-10T11:12:37.910Z,59.90
2023-02-10T11:15:26.702Z,59.80
2023-02-10T11:17:55.459Z,59.90
2023-02-10T11:20:32.000Z,59.90
2023-02-10T11:23:01.962Z,59.80
2023-02-10T11:25:31.561Z,59.80
2023-02-10T11:28:00.255Z,59.80
2023-02-10T11:30:29.963Z,59.80
2023-02-10T11:32:57.992Z,60.00
2023-02-10T11:35:26.167Z,60.30
2023-02-10T11:38:07.002Z,60.30
2023-02-10T11:40:57.507Z,60.50
2023-02-10T11:43:33.862Z,60.90
2023-02-10T11:46:05.086Z,61.50
2023-02-10T11:48:32.251Z,61.40
2023-02-10T11:51:17.014Z,61.30
2023-02-10T11:53:45.958Z,61.60
2023-02-10T11:56:24.043Z,61.70
2023-02-10T11:59:26.149Z,61.80
2023-02-10T12:02:02.585Z,61.80
2023-02-10T12:04:56.893Z,61.90
2023-02-10T12:07:35.392Z,62.00
2023-02-10T12:10:20.058Z,62.10
2023-02-10T12:13:38.789Z,62.10
2023-02-10T12:16:24.153Z,62.20
2023-02-10T12:19:15.450Z,62.10
2023-02-10T12:22:00.345Z,62.30
2023-02-10T12:24:39.676Z,62.20
2023-02-10T12:27:22.433Z,62.40
2023-02-10T12:29:56.950Z,62.40
2023-02-10T12:32:40.635Z,62.50
2023-02-10T12:35:31.320Z,62.60
2023-02-10T12:38:07.594Z,62.70
2023-02-10T12:40:45.305Z,62.80
2023-02-10T12:43:21.519Z,62.60
2023-02-10T12:46:04.333Z,62.60
2023-02-10T12:49:01.572Z,62.60
2023-02-10T12:52:13.519Z,62.60
2023-02-10T12:54:43.847Z,62.60
2023-02-10T12:57:33.759Z,62.60
2023-02-10T13:00:06.172Z,62.60
2023-02-10T13:03:11.499Z,62.70
2023-02-10T13:05:47.123Z,62.80
2023-02-10T13:08:24.572Z,62.80
2023-02-10T13:10:59.034Z,63.00
2023-02-10T13:13:27.716Z,63.00
2023-02-10T13:16:09.261Z,63.10
2023-02-10T13:19:07.837Z,63.20
2023-02-10T13:21:48.812Z,63.20
2023-02-10T13:24:24.654Z,63.20
2023-02-10T13:27:00.466Z,63.10
2023-02-10T13:29:42.757Z,63.20
2023-02-10T13:32:31.131Z,63.10
2023-02-10T13:35:01.735Z,63.10
2023-02-10T13:37:42.761Z,63.00
2023-02-10T13:40:34.441Z,63.00
2023-02-10T13:43:04.655Z,63.00
2023-02-10T13:45:34.330Z,63.00
2023-02-10T13:48:04.648Z,63.00
2023-02-10T13:50:43.769Z,63.20
2023-02-10T13:53:34.915Z,63.20
2023-02-10T13:56:25.153Z,63.30
2023-02-10T13:59:05.706Z,63.20
2023-02-10T14:01:41.821Z,63.20
2023-02-10T14:04:17.917Z,63.00
2023-02-10T14:06:47.823Z,63.40
2023-02-10T14:09:30.153Z,63.10
2023-02-10T14:12:02.988Z,63.10
2023-02-10T14:14:37.129Z,63.10
2023-02-10T14:17:18.765Z,63.40
2023-02-10T14:19:48.167Z,63.50
2023-02-10T14:22:30.602Z,63.60
2023-02-10T14:25:03.716Z,63.50
2023-02-10T14:27:32.306Z,63.30
2023-02-10T14:30:23.528Z,63.40
2023-02-10T14:32:51.033Z,63.50
2023-02-10T14:35:30.758Z,63.40
2023-02-10T14:37:59.911Z,63.30
2023-02-10T14:40:30.149Z,63.10
2023-02-10T14:43:01.806Z,63.10
2023-02-10T14:45:30.288Z,62.90
2023-02-10T14:48:00.518Z,62.90
2023-02-10T14:50:32.948Z,62.80
2023-02-10T14:53:02.187Z,62.90
2023-02-10T14:55:38.286Z,62.90
2023-02-10T14:58:13.200Z,63.10
2023-02-10T15:00:42.270Z,62.90
2023-02-10T15:03:13.921Z,63.20
2023-02-10T15:05:53.493Z,63.20
2023-02-10T15:08:26.885Z,63.40
2023-02-10T15:10:56.022Z,63.50
2023-02-10T15:13:29.862Z,63.60
2023-02-10T15:15:57.932Z,63.80
2023-02-10T15:18:29.310Z,64.00
2023-02-10T15:20:59.617Z,64.10
2023-02-10T15:23:33.211Z,64.20
2023-02-10T15:26:20.695Z,64.40
2023-02-10T15:29:03.593Z,64.60
2023-02-10T15:31:31.724Z,64.60
2023-02-10T15:34:01.063Z,64.70
2023-02-10T15:36:31.643Z,64.60
2023-02-10T15:38:58.716Z,64.60
2023-02-10T15:41:33.967Z,64.80
2023-02-10T15:44:03.822Z,64.90
2023-02-10T15:46:31.948Z,64.90
2023-02-10T15:49:14.211Z,64.80
2023-02-10T15:51:47.280Z,64.60
2023-02-10T15:54:19.581Z,64.50
2023-02-10T15:57:16.019Z,64.70
2023-02-10T15:59:43.080Z,64.60
2023-02-10T16:02:14.771Z,64.60
2023-02-10T16:04:44.100Z,64.30
2023-02-10T16:07:18.470Z,64.30
2023-02-10T16:09:45.603Z,64.10
2023-02-10T16:12:12.671Z,65.00
2023-02-10T16:14:39.824Z,64.10
2023-02-10T16:17:07.981Z,64.00
2023-02-10T16:19:35.600Z,64.00
2023-02-10T16:22:02.555Z,63.70
2023-02-10T16:24:30.970Z,63.80
2023-02-10T16:26:58.602Z,64.00
2023-02-10T16:29:28.704Z,64.10
2023-02-10T16:31:55.770Z,64.20
2023-02-10T16:34:22.963Z,63.90
2023-02-10T16:36:50.829Z,63.90
2023-02-10T16:39:20.748Z,63.90
2023-02-10T16:41:49.424Z,63.90
2023-02-10T16:44:16.810Z,64.00
2023-02-10T16:46:44.131Z,63.90
2023-02-10T16:49:12.819Z,63.80
2023-02-10T16:51:39.948Z,63.80
2023-02-10T16:54:10.374Z,64.60
2023-02-10T16:56:38.749Z,63.50
2023-02-10T16:59:07.081Z,63.40
2023-02-10T17:01:34.397Z,63.30
2023-02-10T17:04:02.434Z,63.20
2023-02-10T17:06:31.495Z,63.10
2023-02-10T17:08:58.659Z,63.20
2023-02-10T17:11:25.793Z,63.40
2023-02-10T17:13:52.881Z,63.20
2023-02-10T17:16:37.823Z,63.10
2023-02-10T17:19:07.033Z,63.10
2023-02-10T17:21:34.646Z,63.10
2023-02-10T17:24:01.729Z,63.00
2023-02-10T17:26:29.120Z,63.00
2023-02-10T17:28:56.010Z,63.20
2023-02-10T17:31:24.710Z,63.30
2023-02-10T17:33:52.414Z,63.50
2023-02-10T17:36:24.917Z,63.50
2023-02-10T17:38:53.112Z,63.70
2023-02-10T17:41:25.589Z,64.00
2023-02-10T17:43:55.670Z,64.00
2023-02-10T17:46:23.165Z,64.00
2023-02-10T17:48:50.131Z,64.20
2023-02-10T17:51:22.584Z,64.10
2023-02-10T17:53:51.187Z,64.30
2023-02-10T17:56:20.640Z,64.40
2023-02-10T17:58:49.115Z,64.40
2023-02-10T18:01:26.623Z,64.30
2023-02-10T18:03:55.024Z,64.30
2023-02-10T18:06:22.727Z,64.20
2023-02-10T18:08:50.061Z,64.30
2023-02-10T18:11:17.548Z,64.20
2023-02-10T18:13:45.607Z,64.10
2023-02-10T18:16:14.000Z,64.10
2023-02-10T18:18:41.057Z,64.10
2023-02-10T18:21:12.840Z,63.90
2023-02-10T18:23:40.014Z,63.80
2023-02-10T18:26:06.967Z,63.70
2023-02-10T18:28:34.012Z,63.60
2023-02-10T18:31:02.649Z,63.70
2023-02-10T18:33:30.444Z,63.70
2023-02-10T18:35:57.559Z,63.80
2023-02-10T18:38:24.935Z,63.80
2023-02-10T18:40:55.858Z,63.80
2023-02-10T18:43:23.374Z,64.00
2023-02-10T18:45:51.358Z,63.90
2023-02-10T18:48:19.981Z,64.00
2023-02-10T18:50:48.705Z,64.00
2023-02-10T18:53:17.020Z,64.10
2023-02-10T18:55:46.056Z,64.30
2023-02-10T18:58:15.111Z,64.30
2023-02-10T19:00:43.055Z,64.60
2023-02-10T19:03:11.089Z,64.50
2023-02-10T19:05:38.622Z,64.40
2023-02-10T19:08:06.427Z,64.40
2023-02-10T19:10:38.366Z,64.50
2023-02-10T19:13:05.939Z,64.60
2023-02-10T19:15:33.570Z,64.70
2023-02-10T19:18:17.436Z,64.60
2023-02-10T19:20:44.937Z,64.90
2023-02-10T19:23:12.032Z,65.10
2023-02-10T19:25:39.085Z,65.20
2023-02-10T19:28:06.464Z,65.30
2023-02-10T19:30:34.051Z,65.40
2023-02-10T19:33:01.144Z,65.40
2023-02-10T19:35:28.178Z,65.40
2023-02-10T19:37:55.210Z,65.50
2023-02-10T19:40:22.285Z,65.90
2023-02-10T19:42:49.328Z,66.00
2023-02-10T19:45:16.564Z,66.20
2023-02-10T19:47:43.719Z,66.10
2023-02-10T19:50:10.781Z,66.20
2023-02-10T19:52:39.460Z,66.60
2023-02-10T19:55:06.890Z,66.80
2023-02-10T19:57:33.941Z,66.70
2023-02-10T20:00:01.008Z,66.60
2023-02-10T20:02:28.239Z,66.60
2023-02-10T20:04:55.346Z,66.60
2023-02-10T20:07:22.509Z,66.60
2023-02-10T20:09:49.665Z,66.50
2023-02-10T20:12:16.855Z,66.40
2023-02-10T20:14:43.885Z,66.30
2023-02-10T20:17:10.943Z,66.20
2023-02-10T20:19:38.073Z,66.10
2023-02-10T20:22:05.197Z,65.90
2023-02-10T20:24:32.307Z,65.80
2023-02-10T20:26:59.224Z,65.60
2023-02-10T20:29:26.484Z,65.30
2023-02-10T20:31:53.665Z,65.30
2023-02-10T20:34:20.784Z,65.10
2023-02-10T20:36:47.830Z,65.00
2023-02-10T20:39:14.932Z,64.80
2023-02-10T20:41:41.954Z,64.70
2023-02-10T20:44:09.076Z,64.60
2023-02-10T20:46:36.323Z,64.40
2023-02-10T20:49:04.914Z,64.30
2023-02-10T20:51:33.813Z,64.30
2023-02-10T20:54:01.241Z,64.20
2023-02-10T20:56:28.389Z,64.20
2023-02-10T20:58:55.326Z,64.20
2023-02-10T21:01:22.408Z,64.20
2023-02-10T21:03:49.429Z,64.20
2023-02-10T21:06:23.318Z,64.10
2023-02-10T21:08:52.250Z,64.00
2023-02-10T21:11:22.670Z,63.90
2023-02-10T21:13:50.148Z,63.90
2023-02-10T21:16:19.806Z,63.90
2023-02-10T21:18:47.522Z,63.90
2023-02-10T21:21:16.215Z,64.00
2023-02-10T21:23:43.839Z,64.00
2023-02-10T21:26:10.962Z,64.00
2023-02-10T21:28:38.314Z,64.00
2023-02-10T21:31:14.288Z,64.00
2023-02-10T21:33:41.560Z,64.00
2023-02-10T21:36:21.834Z,64.10
2023-02-10T21:38:48.852Z,64.00
2023-02-10T21:41:35.258Z,64.00
2023-02-10T21:44:02.335Z,63.90
2023-02-10T21:46:29.385Z,64.00
2023-02-10T21:48:58.310Z,63.90
2023-02-10T21:51:25.412Z,63.80
2023-02-10T21:53:52.475Z,63.90
2023-02-10T21:56:19.640Z,63.90
2023-02-10T21:58:46.654Z,64.00
2023-02-10T22:01:16.204Z,64.00
2023-02-10T22:03:43.417Z,64.00
2023-02-10T22:06:12.091Z,64.10
2023-02-10T22:08:39.115Z,64.10
2023-02-10T22:11:08.238Z,64.10
2023-02-10T22:13:36.801Z,64.10
2023-02-10T22:16:04.734Z,64.10
2023-02-10T22:18:31.841Z,64.10
2023-02-10T22:21:12.138Z,64.10
2023-02-10T22:23:39.738Z,64.10
2023-02-10T22:26:08.580Z,64.20
2023-02-10T22:28:35.832Z,64.20
2023-02-10T22:31:13.399Z,64.20
2023-02-10T22:33:40.336Z,64.20
2023-02-10T22:36:10.090Z,64.20
2023-02-10T22:38:39.565Z,64.20
2023-02-10T22:41:11.960Z,64.20
2023-02-10T22:43:42.044Z,64.20
2023-02-10T22:46:10.068Z,64.20
2023-02-10T22:48:37.365Z,64.20
2023-02-10T22:51:13.744Z,64.20
2023-02-10T22:53:41.530Z,64.30
2023-02-10T22:56:21.917Z,64.40
2023-02-10T22:58:49.290Z,64.40
2023-02-10T23:01:33.748Z,64.60
2023-02-10T23:04:01.112Z,64.60
2023-02-10T23:06:28.401Z,64.70
2023-02-10T23:08:55.684Z,64.80
2023-02-10T23:11:27.820Z,64.80
2023-02-10T23:13:54.788Z,64.70
2023-02-10T23:16:21.846Z,64.90
2023-02-10T23:18:48.974Z,65.00
2023-02-10T23:21:18.249Z,65.10
2023-02-10T23:23:45.509Z,65.20
2023-02-10T23:26:12.749Z,65.40
2023-02-10T23:28:39.821Z,65.50
2023-02-10T23:31:15.424Z,65.60
2023-02-10T23:33:42.720Z,65.60
2023-02-10T23:36:10.641Z,65.70
2023-02-10T23:38:37.729Z,65.70
2023-02-10T23:41:05.831Z,65.70
2023-02-10T23:43:32.884Z,65.80
2023-02-10T23:45:59.887Z,65.80
2023-02-10T23:48:27.061Z,65.90
2023-02-10T23:50:54.048Z,65.90
2023-02-10T23:53:21.022Z,65.90
2023-02-10T23:55:48.082Z,65.90
2023-02-10T23:58:15.112Z,65.80
